Time;durP1;ratioP1;P1;durP2;ratioP2;P2;SDS_P1;SDS_P2;PMS_P1;PMS_P2;Temp;Humidity;BMP_temperature;BMP_pressure;BME280_temperature;BME280_humidity;BME280_pressure;Samples;Min_cycle;Max_cycle;Signal;HPM_P1;HPM_P2
2022/03/13 00:01:51;;;;;;;;;6.00;6.00;;;;;26.80;25.49;100608.16;5078122;27;45576;-77
2022/03/13 00:04:16;;;;;;;;;6.33;4.00;;;;;26.97;25.98;100642.69;5089002;27;45501;-76
2022/03/13 00:06:43;;;;;;;;;7.33;5.33;;;;;27.13;25.53;100648.22;5094237;27;45746;-77
2022/03/13 00:09:13;;;;;;;;;8.67;7.00;;;;;27.07;25.47;100637.63;5079193;27;46502;-77
2022/03/13 00:11:39;;;;;;;;;9.00;8.00;;;;;27.01;25.53;100636.13;5076300;27;45544;-77
2022/03/13 00:14:10;;;;;;;;;6.00;6.00;;;;;26.91;25.55;100613.06;5078867;27;45921;-77
2022/03/13 00:16:35;;;;;;;;;5.33;4.00;;;;;26.86;25.28;100601.53;5078333;27;45703;-77
2022/03/13 00:19:01;;;;;;;;;5.33;5.33;;;;;26.91;25.51;100604.03;5091153;27;45463;-77
2022/03/13 00:21:26;;;;;;;;;7.33;6.33;;;;;26.88;25.50;100613.22;5097538;27;45555;-76
2022/03/13 00:23:51;;;;;;;;;5.00;5.00;;;;;27.02;25.56;100637.88;5076349;27;46129;-76
2022/03/13 00:26:18;;;;;;;;;6.00;4.33;;;;;26.90;25.53;100635.78;5084005;27;45802;-77
2022/03/13 00:28:45;;;;;;;;;8.67;6.00;;;;;26.95;25.56;100636.44;5085800;27;46720;-77
2022/03/13 00:31:10;;;;;;;;;8.00;5.67;;;;;27.02;25.24;100637.88;5076699;27;45483;-77
2022/03/13 00:33:36;;;;;;;;;5.33;4.67;;;;;26.97;25.28;100639.94;5088246;27;45498;-76
2022/03/13 00:36:02;;;;;;;;;4.33;4.33;;;;;27.00;25.23;100648.00;5095750;27;45526;-77
2022/03/13 00:38:27;;;;;;;;;5.00;5.00;;;;;26.94;25.39;100614.75;5088769;27;46112;-77
2022/03/13 00:40:55;;;;;;;;;5.00;5.00;;;;;27.00;25.32;100638.91;5085616;27;45869;-77
2022/03/13 00:43:22;;;;;;;;;6.50;5.00;;;;;26.87;25.11;100628.66;5075316;27;45478;-76
2022/03/13 00:45:47;;;;;;;;;5.00;5.00;;;;;26.89;25.07;100625.84;5074838;27;45484;-77
2022/03/13 00:48:13;;;;;;;;;5.33;5.00;;;;;26.91;25.32;100610.34;5073898;27;45422;-77
2022/03/13 00:50:39;;;;;;;;;4.00;4.00;;;;;27.00;25.24;100625.31;5089066;27;46095;-76
2022/03/13 00:53:05;;;;;;;;;6.33;5.00;;;;;27.07;25.16;100625.88;5083868;27;45432;-76
2022/03/13 00:55:31;;;;;;;;;5.00;5.00;;;;;27.02;25.32;100605.22;5069519;27;45516;-76
2022/03/13 00:57:56;;;;;;;;;5.67;5.67;;;;;27.02;24.92;100615.25;5088188;27;46391;-77
2022/03/13 01:00:22;;;;;;;;;5.33;4.33;;;;;27.08;24.90;100614.03;5055779;28;45568;-76
2022/03/13 01:02:47;;;;;;;;;4.00;4.00;;;;;27.20;25.00;100617.00;5056748;27;45818;-77
2022/03/13 01:05:21;;;;;;;;;4.67;4.67;;;;;27.18;24.89;100616.16;5082894;27;46541;-77
2022/03/13 01:07:47;;;;;;;;;5.00;5.00;;;;;27.20;25.20;100627.88;5089435;27;45475;-77
2022/03/13 01:10:12;;;;;;;;;6.33;4.67;;;;;27.01;25.12;100611.63;5074641;27;46237;-76
2022/03/13 01:12:38;;;;;;;;;5.67;5.00;;;;;27.11;25.22;100616.59;5093262;27;45877;-76
2022/03/13 01:15:04;;;;;;;;;7.00;6.00;;;;;27.22;25.03;100614.19;5080836;27;45479;-76
2022/03/13 01:17:29;;;;;;;;;6.00;5.33;;;;;27.29;25.04;100617.47;5082869;27;46471;-77
2022/03/13 01:19:55;;;;;;;;;6.33;5.33;;;;;27.12;24.88;100593.84;5074542;27;45730;-77
2022/03/13 01:22:20;;;;;;;;;5.67;5.67;;;;;27.22;24.73;100609.59;5093731;27;45596;-76
2022/03/13 01:24:46;;;;;;;;;8.67;6.67;;;;;27.25;24.63;100599.53;5092308;27;45410;-76
2022/03/13 01:27:14;;;;;;;;;8.00;6.33;;;;;27.15;24.71;100564.59;5087846;27;45525;-76
2022/03/13 01:29:40;;;;;;;;;7.33;7.33;;;;;27.30;24.70;100584.69;5081796;27;45450;-76
2022/03/13 01:32:12;;;;;;;;;9.67;7.33;;;;;27.32;24.40;100585.47;5083728;27;45513;-76
2022/03/13 01:34:44;;;;;;;;;7.00;7.00;;;;;27.37;24.76;100591.59;5080007;27;45434;-75
2022/03/13 01:37:29;;;;;;;;;7.33;7.33;;;;;27.38;24.58;100587.91;5073324;27;46355;-75
2022/03/13 01:39:56;;;;;;;;;9.67;8.00;;;;;27.36;24.76;100576.22;5073380;27;45549;-75
2022/03/13 01:42:22;;;;;;;;;9.00;6.67;;;;;27.34;24.40;100571.78;5061824;27;45616;-75
2022/03/13 01:44:48;;;;;;;;;9.00;6.00;;;;;27.38;24.82;100571.56;5074114;27;45603;-76
2022/03/13 01:47:14;;;;;;;;;10.00;6.33;;;;;27.36;24.98;100573.50;5077001;27;46580;-76
2022/03/13 01:49:39;;;;;;;;;8.33;8.00;;;;;27.39;24.87;100567.00;5088573;27;45885;-77
2022/03/13 01:52:05;;;;;;;;;8.00;8.00;;;;;27.22;24.71;100548.81;5075567;27;45600;-77
2022/03/13 01:54:30;;;;;;;;;7.67;7.67;;;;;27.43;24.73;100568.59;5092784;27;45482;-76
2022/03/13 01:56:56;;;;;;;;;7.67;7.67;;;;;27.52;24.78;100576.28;5081831;27;46376;-76
2022/03/13 01:59:22;;;;;;;;;8.00;8.00;;;;;27.12;25.01;100518.47;5086842;27;45599;-76
2022/03/13 02:01:47;;;;;;;;;12.00;11.00;;;;;27.42;24.85;100566.81;5079976;27;45833;-76
2022/03/13 02:04:13;;;;;;;;;8.33;8.33;;;;;27.37;25.20;100568.94;5087833;27;45594;-76
2022/03/13 02:06:39;;;;;;;;;9.00;9.00;;;;;27.20;24.77;100554.34;5087405;27;45497;-76
2022/03/13 02:09:06;;;;;;;;;12.00;10.00;;;;;27.43;25.08;100562.28;5090164;27;45419;-77
2022/03/13 02:11:40;;;;;;;;;8.33;6.33;;;;;27.42;24.69;100557.78;5068989;27;45829;-76
2022/03/13 02:14:07;;;;;;;;;10.67;10.67;;;;;27.18;24.80;100528.16;5088254;27;45448;-76
2022/03/13 02:16:33;;;;;;;;;6.00;6.00;;;;;27.19;24.30;100532.66;5087611;27;45449;-76
2022/03/13 02:18:59;;;;;;;;;12.00;10.00;;;;;27.25;24.97;100555.94;5089823;27;45868;-76
2022/03/13 02:21:29;;;;;;;;;8.67;8.67;;;;;27.16;25.14;100541.00;5081055;27;45427;-76
2022/03/13 02:23:55;;;;;;;;;10.67;8.67;;;;;27.12;24.63;100542.13;5080544;27;46008;-75
2022/03/13 02:26:21;;;;;;;;;11.33;11.00;;;;;27.02;24.84;100541.72;5069360;27;47282;-75
2022/03/13 02:28:51;;;;;;;;;11.00;10.00;;;;;26.90;25.05;100516.00;5081983;27;45589;-76
2022/03/13 02:31:27;;;;;;;;;12.67;11.00;;;;;27.05;24.81;100534.25;5084107;27;45467;-75
2022/03/13 02:33:53;;;;;;;;;9.00;9.00;;;;;26.98;24.83;100524.66;5070076;27;45834;-76
2022/03/13 02:36:52;;;;;;;;;12.33;11.67;;;;;26.91;25.09;100517.78;5086996;27;47455;-75
2022/03/13 02:39:18;;;;;;;;;7.33;7.33;;;;;26.75;25.02;100500.50;5077759;27;45525;-74
2022/03/13 02:41:44;;;;;;;;;12.33;11.00;;;;;26.73;25.33;100514.19;5068782;27;45509;-75
2022/03/13 02:44:14;;;;;;;;;10.00;9.00;;;;;26.71;25.06;100510.69;5086924;27;45775;-76
2022/03/13 02:46:53;;;;;;;;;10.33;9.33;;;;;26.45;25.47;100488.38;5076195;27;46224;-76
2022/03/13 02:49:20;;;;;;;;;13.67;11.00;;;;;26.49;25.15;100506.31;5087744;27;45480;-76
2022/03/13 02:51:48;;;;;;;;;15.33;12.00;;;;;26.40;25.64;100474.16;5079667;27;45636;-76
2022/03/13 02:54:15;;;;;;;;;12.00;12.00;;;;;26.56;25.39;100500.56;5081939;27;45856;-76
2022/03/13 02:56:41;;;;;;;;;11.67;6.33;;;;;26.60;25.03;100499.44;5081320;27;45883;-75
2022/03/13 02:59:07;;;;;;;;;8.33;8.33;;;;;26.55;25.26;100496.94;5081598;27;45561;-76
2022/03/13 03:01:32;;;;;;;;;9.00;8.00;;;;;26.33;25.33;100478.16;5059703;27;46117;-75
2022/03/13 03:04:01;;;;;;;;;11.67;10.67;;;;;26.26;25.52;100482.13;5087023;27;45823;-76
2022/03/13 03:06:31;;;;;;;;;9.33;8.33;;;;;26.23;25.42;100477.75;5070761;27;46134;-76
2022/03/13 03:08:57;;;;;;;;;9.00;9.00;;;;;26.36;25.20;100499.75;5084396;27;45372;-76
2022/03/13 03:11:22;;;;;;;;;8.67;7.00;;;;;26.13;25.15;100465.53;5064806;27;45704;-75
2022/03/13 03:13:47;;;;;;;;;9.67;8.00;;;;;26.13;25.53;100465.53;5080067;27;45718;-76
2022/03/13 03:16:13;;;;;;;;;11.33;10.00;;;;;26.25;24.95;100496.69;5078441;27;46423;-76
2022/03/13 03:18:39;;;;;;;;;10.00;9.67;;;;;26.25;24.95;100492.13;5085935;27;45347;-75
2022/03/13 03:21:04;;;;;;;;;10.00;9.00;;;;;26.28;24.96;100491.97;5081414;27;45846;-76
2022/03/13 03:23:30;;;;;;;;;8.67;8.67;;;;;26.28;25.18;100501.97;5083083;27;45533;-75
2022/03/13 03:25:55;;;;;;;;;8.67;8.67;;;;;26.24;24.94;100498.50;5084839;27;45876;-77
2022/03/13 03:28:22;;;;;;;;;10.00;8.00;;;;;26.24;25.24;100498.50;5071197;27;45486;-77
2022/03/13 03:30:47;;;;;;;;;8.33;8.00;;;;;26.16;24.85;100488.03;5081818;27;45920;-77
2022/03/13 03:33:13;;;;;;;;;6.67;6.67;;;;;26.19;25.00;100487.00;5069259;28;45512;-76
2022/03/13 03:35:38;;;;;;;;;6.67;6.67;;;;;26.22;25.10;100481.41;5078462;27;45985;-75
2022/03/13 03:38:04;;;;;;;;;9.00;8.00;;;;;26.23;25.21;100501.31;5078169;27;45547;-76
2022/03/13 03:40:31;;;;;;;;;9.00;8.00;;;;;26.19;24.75;100501.47;5079087;27;45663;-76
2022/03/13 03:43:02;;;;;;;;;8.67;8.00;;;;;26.17;24.94;100484.38;5075653;27;45582;-76
2022/03/13 03:45:28;;;;;;;;;8.33;8.00;;;;;26.08;25.14;100486.66;5077510;27;45816;-76
2022/03/13 03:47:54;;;;;;;;;5.00;5.00;;;;;26.13;24.66;100488.19;5080628;27;45583;-76
2022/03/13 03:50:20;;;;;;;;;5.00;5.00;;;;;26.06;24.56;100474.97;5082639;27;46659;-77
2022/03/13 03:52:46;;;;;;;;;6.67;6.67;;;;;26.07;24.62;100472.19;5077680;27;45835;-76
2022/03/13 03:55:12;;;;;;;;;6.00;6.00;;;;;25.94;24.96;100485.47;5073793;27;45613;-76
2022/03/13 03:57:38;;;;;;;;;7.00;4.67;;;;;25.81;24.74;100466.19;5078878;27;45532;-76
2022/03/13 04:00:06;;;;;;;;;6.33;5.00;;;;;25.70;24.95;100470.38;5073898;27;45899;-76
2022/03/13 04:02:34;;;;;;;;;6.33;6.33;;;;;25.82;25.16;100478.81;5076336;27;45653;-75
2022/03/13 04:05:03;;;;;;;;;7.00;6.67;;;;;25.78;25.18;100482.63;5074686;28;46173;-75
2022/03/13 04:07:30;;;;;;;;;9.67;8.00;;;;;25.92;25.03;100490.13;5059088;27;45516;-76
2022/03/13 04:09:55;;;;;;;;;8.00;6.33;;;;;25.86;24.79;100468.66;5091401;27;45467;-76
2022/03/13 04:12:20;;;;;;;;;4.67;4.00;;;;;26.00;24.55;100481.56;5074911;28;45460;-77
2022/03/13 04:14:46;;;;;;;;;5.00;5.00;;;;;25.87;24.84;100470.44;5056761;28;48292;-78
2022/03/13 04:17:11;;;;;;;;;5.33;4.67;;;;;25.68;25.05;100492.16;5074837;28;45360;-77
2022/03/13 04:19:37;;;;;;;;;6.67;5.00;;;;;25.80;25.22;100475.28;5078247;28;45340;-77
2022/03/13 04:22:02;;;;;;;;;5.00;5.00;;;;;25.87;25.00;100489.44;5059992;28;45513;-77
2022/03/13 04:24:31;;;;;;;;;7.00;7.00;;;;;25.80;24.59;100474.41;5060089;28;46881;-77
2022/03/13 04:26:57;;;;;;;;;7.00;5.00;;;;;25.70;24.74;100467.69;5078441;28;45281;-77
2022/03/13 04:29:23;;;;;;;;;4.00;4.00;;;;;25.95;24.60;100500.84;5078619;28;45450;-77
2022/03/13 04:31:50;;;;;;;;;6.33;5.67;;;;;25.99;24.77;100487.94;5078556;28;45389;-77
2022/03/13 04:34:16;;;;;;;;;5.67;5.67;;;;;25.98;24.40;100489.81;5078353;28;45711;-76
2022/03/13 04:36:42;;;;;;;;;3.00;3.00;;;;;26.02;24.22;100496.88;5059949;28;45627;-77
2022/03/13 04:39:08;;;;;;;;;3.33;3.33;;;;;26.11;24.27;100506.41;5078365;28;45507;-77
2022/03/13 04:41:34;;;;;;;;;4.33;3.00;;;;;26.05;24.33;100478.63;5078505;28;45425;-77
2022/03/13 04:43:59;;;;;;;;;5.67;4.00;;;;;26.17;24.29;100500.69;5059710;28;47479;-77
2022/03/13 04:46:25;;;;;;;;;7.00;7.00;;;;;26.04;23.99;100496.81;5078218;28;45478;-77
2022/03/13 04:48:52;;;;;;;;;5.67;5.67;;;;;25.98;24.23;100483.50;5078499;28;45518;-77
2022/03/13 04:51:18;;;;;;;;;6.00;4.33;;;;;26.04;24.51;100504.09;5059702;28;45556;-77
2022/03/13 04:53:43;;;;;;;;;7.67;5.00;;;;;26.13;24.28;100503.63;5059853;28;48072;-77
2022/03/13 04:56:09;;;;;;;;;4.00;4.00;;;;;26.09;24.40;100500.19;5093533;27;45232;-77
2022/03/13 04:58:34;;;;;;;;;5.00;5.00;;;;;25.99;24.14;100488.84;5098696;27;45506;-77
2022/03/13 05:01:00;;;;;;;;;4.67;4.67;;;;;25.92;23.75;100476.53;5080292;27;45480;-77
2022/03/13 05:03:27;;;;;;;;;5.00;5.00;;;;;25.97;24.17;100443.66;5076371;27;46929;-77
2022/03/13 05:05:53;;;;;;;;;5.00;4.00;;;;;26.30;23.88;100489.16;5077623;28;45309;-77
2022/03/13 05:08:19;;;;;;;;;4.67;4.00;;;;;26.11;23.93;100453.88;5096212;27;45360;-77
2022/03/13 05:10:47;;;;;;;;;5.00;5.00;;;;;26.21;23.60;100485.06;5080089;27;45356;-77
2022/03/13 05:13:16;;;;;;;;;3.00;3.00;;;;;26.29;23.93;100488.28;5098236;27;46073;-77
2022/03/13 05:15:43;;;;;;;;;7.33;5.67;;;;;26.08;24.28;100470.34;5088400;27;45397;-77
2022/03/13 05:18:09;;;;;;;;;4.67;4.67;;;;;26.14;24.02;100462.75;5077690;28;45374;-77
2022/03/13 05:20:36;;;;;;;;;4.33;3.00;;;;;26.15;23.95;100452.78;5077549;28;45514;-77
2022/03/13 05:23:03;;;;;;;;;4.00;4.00;;;;;26.28;23.75;100480.22;5076129;28;48316;-78
2022/03/13 05:25:30;;;;;;;;;9.33;7.00;;;;;26.37;23.66;100474.31;5077564;28;45419;-78
2022/03/13 05:27:56;;;;;;;;;4.00;4.00;;;;;26.38;24.13;100475.19;5077701;28;45388;-78
2022/03/13 05:30:21;;;;;;;;;3.00;3.00;;;;;26.39;23.89;100488.69;5077096;28;45459;-77
2022/03/13 05:32:47;;;;;;;;;4.67;4.00;;;;;26.36;23.92;100478.84;5077477;28;45398;-78
2022/03/13 05:35:13;;;;;;;;;6.33;4.67;;;;;26.27;23.76;100489.31;5077033;28;45451;-78
2022/03/13 05:37:39;;;;;;;;;6.33;5.00;;;;;26.21;24.07;100482.34;5059486;28;45407;-77
2022/03/13 05:40:06;;;;;;;;;1.33;1.33;;;;;26.15;24.19;100491.72;5077330;28;45482;-78
2022/03/13 05:42:31;;;;;;;;;6.33;3.33;;;;;26.13;23.87;100481.88;5077525;28;45530;-77
2022/03/13 05:44:56;;;;;;;;;10.00;4.00;;;;;26.12;24.16;100500.03;5077203;28;45358;-78
2022/03/13 05:47:23;;;;;;;;;5.67;4.33;;;;;25.97;24.31;100498.91;5077581;28;45596;-78
2022/03/13 05:49:48;;;;;;;;;5.33;4.00;;;;;25.97;23.66;100490.75;5077243;28;45379;-78
2022/03/13 05:52:15;;;;;;;;;5.33;5.33;;;;;25.96;24.32;100496.25;5076850;28;45351;-78
2022/03/13 05:54:42;;;;;;;;;3.33;3.33;;;;;25.92;23.96;100506.44;5077383;28;45410;-78
2022/03/13 05:57:09;;;;;;;;;4.33;4.33;;;;;26.02;24.18;100507.75;5092287;27;45471;-78
2022/03/13 05:59:35;;;;;;;;;3.67;3.67;;;;;25.91;24.28;100492.91;5097753;27;45397;-78
2022/03/13 06:02:04;;;;;;;;;5.00;4.00;;;;;25.90;24.03;100497.44;5097196;27;46019;-78
2022/03/13 06:04:32;;;;;;;;;4.67;3.00;;;;;25.81;23.97;100495.19;5097070;27;45314;-78
2022/03/13 06:06:57;;;;;;;;;5.33;5.33;;;;;25.85;24.28;100496.81;5097736;27;45486;-78
2022/03/13 06:09:22;;;;;;;;;4.67;4.67;;;;;25.86;23.88;100487.69;5097115;27;45547;-78
2022/03/13 06:11:48;;;;;;;;;5.00;5.00;;;;;25.89;24.31;100490.25;5097134;27;46519;-78
2022/03/13 06:14:13;;;;;;;;;11.33;9.33;;;;;25.79;23.93;100489.81;5078710;27;45539;-78
2022/03/13 06:16:39;;;;;;;;;5.00;5.00;;;;;25.76;24.37;100494.53;5097202;27;45419;-77
2022/03/13 06:19:04;;;;;;;;;2.33;2.33;;;;;25.93;24.18;100502.72;5078636;27;45425;-77
2022/03/13 06:21:30;;;;;;;;;4.00;4.00;;;;;25.69;23.72;100488.50;5096786;27;52340;-77
2022/03/13 06:23:55;;;;;;;;;5.00;5.00;;;;;25.89;23.81;100509.28;5096930;27;45665;-77
2022/03/13 06:26:20;;;;;;;;;3.33;3.33;;;;;25.84;24.11;100512.22;5078696;27;45433;-77
2022/03/13 06:28:46;;;;;;;;;3.00;3.00;;;;;25.94;24.05;100496.34;5097210;27;45390;-77
2022/03/13 06:31:12;;;;;;;;;10.00;8.67;;;;;25.89;23.81;100506.56;5096555;27;46049;-77
2022/03/13 06:33:37;;;;;;;;;3.67;3.33;;;;;25.72;24.11;100509.22;5096807;27;45425;-77
2022/03/13 06:36:03;;;;;;;;;3.00;3.00;;;;;25.91;23.71;100506.50;5097094;27;45427;-77
2022/03/13 06:38:29;;;;;;;;;3.00;3.00;;;;;25.76;23.55;100511.72;5097072;27;45777;-78
2022/03/13 06:40:54;;;;;;;;;4.33;3.00;;;;;25.79;23.90;100510.69;5095776;27;45388;-77
2022/03/13 06:43:20;;;;;;;;;3.33;2.00;;;;;25.88;23.85;100512.97;5096880;27;45499;-77
2022/03/13 06:45:46;;;;;;;;;4.33;4.00;;;;;25.95;23.99;100533.44;5096781;27;45564;-77
2022/03/13 06:48:13;;;;;;;;;3.00;2.00;;;;;26.08;23.63;100532.88;5096432;27;45688;-77
2022/03/13 06:50:39;;;;;;;;;5.00;4.00;;;;;25.91;23.97;100537.28;5096728;27;46285;-77
2022/03/13 06:53:04;;;;;;;;;3.00;3.00;;;;;25.82;23.41;100526.84;5083751;27;47778;-75
2022/03/13 06:55:30;;;;;;;;;5.00;3.00;;;;;26.20;23.50;100537.69;5076474;28;45355;-78
2022/03/13 06:57:58;;;;;;;;;4.00;4.00;;;;;26.19;23.29;100534.09;5076503;28;45605;-83
2022/03/13 07:00:23;;;;;;;;;4.00;3.00;;;;;26.10;23.54;100523.66;5076235;28;46655;-82
2022/03/13 07:02:49;;;;;;;;;4.00;4.00;;;;;26.12;23.22;100513.63;5075747;28;45355;-86
2022/03/13 07:05:15;;;;;;;;;5.00;3.33;;;;;26.22;23.78;100530.34;5057807;28;45404;-82
2022/03/13 07:07:41;;;;;;;;;3.67;3.67;;;;;26.08;23.21;100505.69;5076717;28;45350;-83
2022/03/13 07:10:11;;;;;;;;;3.00;3.00;;;;;25.88;23.37;100493.94;5075810;28;45603;-83
2022/03/13 07:12:37;;;;;;;;;3.67;3.00;;;;;26.15;23.06;100528.91;5075838;27;45268;-84
2022/03/13 07:15:03;;;;;;;;;3.00;3.00;;;;;25.92;23.31;100513.69;5075735;28;45466;-84
2022/03/13 07:17:29;;;;;;;;;3.00;3.00;;;;;25.78;23.45;100466.34;5074431;27;45364;-85
2022/03/13 07:19:54;;;;;;;;;3.33;3.33;;;;;25.86;23.27;100474.09;5075970;27;45823;-84
2022/03/13 07:22:20;;;;;;;;;3.00;3.00;;;;;25.96;23.58;100491.72;5075791;28;45613;-84
2022/03/13 07:24:48;;;;;;;;;5.00;5.00;;;;;26.10;23.35;100498.34;5090998;27;45558;-84
2022/03/13 07:27:15;;;;;;;;;5.00;3.33;;;;;26.21;23.02;100517.72;5076204;28;45572;-85
2022/03/13 07:29:40;;;;;;;;;3.67;3.67;;;;;26.14;23.12;100500.81;5057257;28;47582;-85
2022/03/13 07:32:06;;;;;;;;;5.33;4.00;;;;;26.23;22.90;100526.69;5075912;28;45317;-84
2022/03/13 07:34:32;;;;;;;;;3.00;3.00;;;;;26.13;23.30;100484.56;5057659;28;45288;-85
2022/03/13 07:36:57;;;;;;;;;3.00;2.00;;;;;26.01;23.22;100483.38;5057662;28;45535;-85
2022/03/13 07:39:24;;;;;;;;;3.00;3.00;;;;;26.01;23.08;100462.50;5075364;28;46699;-84
2022/03/13 07:41:50;;;;;;;;;4.00;4.00;;;;;26.36;23.07;100526.94;5075842;28;45370;-84
2022/03/13 07:44:15;;;;;;;;;4.67;4.00;;;;;26.27;22.94;100521.97;5075270;28;45452;-84
2022/03/13 07:46:41;;;;;;;;;3.00;3.00;;;;;26.10;23.26;100490.19;5057267;28;45419;-84
2022/03/13 07:49:06;;;;;;;;;4.33;3.67;;;;;26.40;22.44;100512.22;5075418;28;45461;-84
2022/03/13 07:51:34;;;;;;;;;4.00;3.00;;;;;25.85;23.08;100415.28;5057261;28;45431;-82
2022/03/13 07:54:01;;;;;;;;;4.00;3.00;;;;;26.31;22.74;100475.47;5061056;28;45255;-83
2022/03/13 07:56:27;;;;;;;;;4.67;4.00;;;;;25.92;22.78;100423.97;5078987;28;45545;-83
2022/03/13 07:58:52;;;;;;;;;3.33;3.00;;;;;26.48;23.11;100529.03;5060262;28;47202;-83
2022/03/13 08:01:18;;;;;;;;;3.67;3.67;;;;;26.19;23.30;100506.91;5078830;28;45319;-83
2022/03/13 08:03:45;;;;;;;;;4.00;3.00;;;;;26.39;22.86;100479.69;5079088;28;45596;-83
2022/03/13 08:06:11;;;;;;;;;5.67;4.67;;;;;26.62;22.98;100489.34;5061005;28;45626;-83
2022/03/13 08:08:36;;;;;;;;;4.33;2.33;;;;;26.57;23.04;100522.25;5083391;27;46276;-81
2022/03/13 08:11:02;;;;;;;;;2.33;2.00;;;;;26.23;22.61;100466.88;5077675;27;45341;-81
2022/03/13 08:13:27;;;;;;;;;2.67;2.67;;;;;26.57;22.35;100505.91;5078416;28;45860;-81
2022/03/13 08:15:53;;;;;;;;;2.00;2.00;;;;;26.23;22.87;100483.19;5085531;27;45477;-84
2022/03/13 08:18:18;;;;;;;;;4.00;4.00;;;;;26.38;23.41;100507.81;5099094;27;46179;-83
2022/03/13 08:20:44;;;;;;;;;3.00;3.00;;;;;26.40;23.19;100489.56;5085188;27;45624;-82
2022/03/13 08:23:09;;;;;;;;;3.67;3.67;;;;;26.41;22.94;100461.41;5092934;27;45297;-83
2022/03/13 08:25:34;;;;;;;;;2.00;2.00;;;;;26.53;22.79;100498.88;5081088;27;45365;-85
2022/03/13 08:28:00;;;;;;;;;2.67;1.33;;;;;26.08;22.91;100462.19;5074582;27;47161;-85
2022/03/13 08:30:25;;;;;;;;;2.00;2.00;;;;;25.73;23.42;100427.63;5080504;27;45914;-89
2022/03/13 08:32:51;;;;;;;;;4.00;2.67;;;;;26.07;23.32;100439.56;5098432;27;45318;-86
2022/03/13 08:35:17;;;;;;;;;3.00;3.00;;;;;26.59;23.07;100495.81;5072320;28;45619;-86
2022/03/13 08:37:43;;;;;;;;;3.00;1.67;;;;;26.46;22.87;100457.50;5095598;27;46147;-86
2022/03/13 08:40:10;;;;;;;;;4.00;2.00;;;;;26.73;22.42;100503.31;5080148;27;45284;-85
2022/03/13 08:42:35;;;;;;;;;2.00;2.00;;;;;26.64;22.62;100499.19;5098412;27;45399;-85
2022/03/13 08:45:01;;;;;;;;;2.00;2.00;;;;;25.99;22.76;100439.03;5079862;27;45496;-86
2022/03/13 08:47:27;;;;;;;;;2.00;2.00;;;;;26.64;22.72;100499.19;5097096;27;45987;-84
2022/03/13 08:49:53;;;;;;;;;2.00;2.00;;;;;26.45;22.52;100471.19;5084883;27;45490;-78
2022/03/13 08:52:19;;;;;;;;;3.33;2.00;;;;;26.49;22.58;100468.22;5079899;27;45319;-82
2022/03/13 08:54:45;;;;;;;;;2.33;2.00;;;;;26.66;22.57;100445.56;5098400;27;45687;-81
2022/03/13 08:57:10;;;;;;;;;1.00;1.00;;;;;27.12;22.22;100490.38;5079586;27;47184;-81
2022/03/13 08:59:36;;;;;;;;;1.00;1.00;;;;;27.23;21.87;100501.56;5098123;27;45277;-80
2022/03/13 09:02:02;;;;;;;;;2.67;2.67;;;;;27.20;22.19;100504.44;5097823;27;45398;-81
2022/03/13 09:04:27;;;;;;;;;2.00;2.00;;;;;27.31;21.97;100502.03;5078478;27;47187;-79
2022/03/13 09:06:54;;;;;;;;;1.00;1.00;;;;;27.15;21.93;100476.59;5098090;27;46087;-80
2022/03/13 09:09:20;;;;;;;;;2.00;2.00;;;;;27.39;22.10;100501.63;5076290;27;45367;-77
2022/03/13 09:11:47;;;;;;;;;2.00;2.00;;;;;27.61;21.86;100505.84;5077542;27;45414;-78
2022/03/13 09:14:13;;;;;;;;;2.00;2.00;;;;;27.59;21.63;100505.06;5077906;28;45729;-78
2022/03/13 09:16:39;;;;;;;;;2.00;2.00;;;;;27.42;21.49;100478.78;5068112;27;47212;-79
2022/03/13 09:19:05;;;;;;;;;2.67;1.67;;;;;27.43;21.74;100492.31;5098123;27;45470;-78
2022/03/13 09:21:31;;;;;;;;;2.33;1.33;;;;;27.59;21.54;100486.88;5079616;27;45734;-78
2022/03/13 09:23:57;;;;;;;;;1.00;1.00;;;;;27.87;21.48;100512.56;5097332;27;45380;-78
2022/03/13 09:26:22;;;;;;;;;3.67;2.00;;;;;27.77;21.61;100479.50;5096789;27;46152;-78
2022/03/13 09:28:48;;;;;;;;;2.00;2.00;;;;;27.75;21.49;100488.72;5083620;27;45413;-79
2022/03/13 09:31:14;;;;;;;;;2.00;2.00;;;;;27.47;21.46;100501.22;5085148;27;45499;-78
2022/03/13 09:33:39;;;;;;;;;1.00;1.00;;;;;27.36;21.51;100508.09;5090085;27;45362;-78
2022/03/13 09:36:04;;;;;;;;;2.00;2.00;;;;;27.21;21.37;100504.38;5077479;28;45452;-82
2022/03/13 09:38:29;;;;;;;;;3.67;1.00;;;;;27.25;21.85;100509.66;5091213;27;45398;-81
2022/03/13 09:40:55;;;;;;;;;2.00;2.00;;;;;27.26;22.01;100490.50;5096418;27;45549;-89
2022/03/13 09:43:21;;;;;;;;;3.00;2.00;;;;;27.42;21.45;100474.19;5097384;27;45263;-82
2022/03/13 09:45:48;;;;;;;;;1.00;1.00;;;;;27.87;21.33;100485.28;5081174;27;46436;-81
2022/03/13 09:48:15;;;;;;;;;1.00;1.00;;;;;27.94;21.25;100456.69;5077003;27;45458;-80
2022/03/13 09:50:44;;;;;;;;;1.33;1.33;;;;;28.38;20.53;100507.78;5078578;27;45388;-80
2022/03/13 09:53:10;;;;;;;;;0.33;0.33;;;;;28.25;20.82;100493.09;5097758;27;45326;-78
2022/03/13 09:55:35;;;;;;;;;1.00;1.00;;;;;28.40;20.95;100503.09;5096209;27;45457;-78
2022/03/13 09:58:01;;;;;;;;;1.00;1.00;;;;;27.46;20.61;100413.13;5080363;27;45521;-78
2022/03/13 10:00:26;;;;;;;;;1.00;1.00;;;;;28.04;21.04;100498.88;5079237;27;45441;-77
2022/03/13 10:02:54;;;;;;;;;0.00;0.00;;;;;28.02;20.84;100489.88;5097313;27;45603;-79
2022/03/13 10:05:21;;;;;;;;;1.00;1.00;;;;;27.98;21.07;100510.09;5095696;27;47343;-78
2022/03/13 10:07:49;;;;;;;;;3.00;0.00;;;;;27.69;21.10;100503.56;5090213;27;45506;-78
2022/03/13 10:10:14;;;;;;;;;1.00;1.00;;;;;27.68;21.17;100450.94;5083177;27;45423;-81
2022/03/13 10:12:41;;;;;;;;;1.00;1.00;;;;;28.15;21.01;100489.19;5077299;27;45794;-81
2022/03/13 10:15:07;;;;;;;;;1.00;1.00;;;;;28.03;20.76;100508.03;5087766;27;45658;-81
2022/03/13 10:17:35;;;;;;;;;2.00;2.00;;;;;28.01;20.78;100509.94;5077661;27;45460;-81
2022/03/13 10:20:30;;;;;;;;;1.00;1.00;;;;;28.20;21.01;100508.88;5074022;27;45825;-80
2022/03/13 10:23:04;;;;;;;;;1.00;1.00;;;;;28.28;20.87;100509.28;5066775;27;45753;-80
2022/03/13 10:25:39;;;;;;;;;1.00;1.00;;;;;28.06;20.67;100496.94;5075898;27;46294;-81
2022/03/13 10:28:12;;;;;;;;;2.00;2.00;;;;;28.37;20.99;100506.03;5088129;27;45485;-81
2022/03/13 10:30:38;;;;;;;;;1.00;1.00;;;;;28.26;21.12;100505.78;5081435;27;45767;-81
2022/03/13 10:33:05;;;;;;;;;3.00;3.00;;;;;28.35;20.91;100488.84;5074015;27;45703;-81
2022/03/13 10:35:31;;;;;;;;;3.33;3.33;;;;;28.57;20.83;100506.69;5077293;27;45640;-80
2022/03/13 10:37:56;;;;;;;;;3.33;2.67;;;;;28.42;20.69;100478.47;5070042;27;45572;-80
2022/03/13 10:40:24;;;;;;;;;1.33;1.33;;;;;28.48;20.54;100488.13;5078184;27;45718;-81
2022/03/13 10:42:51;;;;;;;;;0.00;0.00;;;;;28.45;20.88;100467.34;5083338;27;45532;-81
2022/03/13 10:45:37;;;;;;;;;1.00;1.00;;;;;28.68;20.63;100485.09;5080007;27;45584;-81
2022/03/13 10:48:30;;;;;;;;;2.00;2.00;;;;;28.32;20.75;100456.31;5071847;27;45985;-80
2022/03/13 10:51:00;;;;;;;;;3.00;2.00;;;;;28.37;20.63;100446.00;5072343;27;45468;-78
2022/03/13 10:53:27;;;;;;;;;2.00;2.00;;;;;28.53;20.59;100472.34;5084486;27;45605;-79
2022/03/13 10:56:02;;;;;;;;;4.00;4.00;;;;;28.79;20.59;100494.47;5075334;27;45781;-84
2022/03/13 10:58:31;;;;;;;;;3.00;3.00;;;;;28.84;20.90;100490.47;5085991;27;45545;-80
2022/03/13 11:01:11;;;;;;;;;5.00;5.00;;;;;28.72;20.61;100504.88;5072058;27;45808;-80
2022/03/13 11:03:47;;;;;;;;;4.00;3.00;;;;;28.71;20.61;100498.56;5072374;27;45640;-79
2022/03/13 11:06:13;;;;;;;;;2.00;2.00;;;;;28.33;20.83;100447.16;5074611;27;45569;-79
2022/03/13 11:08:40;;;;;;;;;4.00;4.00;;;;;28.29;20.80;100442.84;5073808;27;45606;-80
2022/03/13 11:11:06;;;;;;;;;3.00;3.00;;;;;28.23;20.91;100429.59;5091986;27;45441;-79
2022/03/13 11:13:32;;;;;;;;;23.00;21.67;;;;;28.12;20.94;100407.53;5082038;27;45947;-80
2022/03/13 11:15:58;;;;;;;;;13.00;13.00;;;;;27.86;20.83;100386.28;5072416;27;46408;-81
2022/03/13 11:18:33;;;;;;;;;4.00;4.00;;;;;27.65;20.95;100330.31;5075516;27;45554;-82
2022/03/13 11:20:59;;;;;;;;;3.00;3.00;;;;;28.60;20.97;100491.97;5090476;27;45462;-81
2022/03/13 11:23:27;;;;;;;;;2.00;2.00;;;;;28.55;20.57;100503.16;5072985;27;45593;-82